Impacts METAR Board
IDs:

KBBD - Brady/Curtis Fld, TX, US

Updated at: 0600 UTC 24 Sep 2020
Potential Impact None Slight Moderate High
Time 23/18Z 23/19Z 23/20Z 23/21Z 23/22Z 23/23Z 24/00Z 24/01Z 24/02Z 24/03Z 24/04Z 24/05Z 24/06Z
Temp70 72 73 75 75 77 75 70 66 64 64 63 61
Dewpt64 64 63 63 63 63 63 63 63 61 61 61 59
Altim30.02 30.01 29.99 29.97 29.95 29.95 29.96 29.97 29.99 30.00 30.01 30.01 30.00
VIS10 10 10 10 10 10 10 10 10 10 10 10 10
CIG14 18 24 -- -- -- -- -- -- 50 -- -- --
CoverOVCOVCOVC--FEWCLRCLRCLRSCTBKNSCTCLRCLR
FltCatMVFRMVFRMVFRVFRVFRVFRVFRVFRVFRVFRVFRVFRVFR
WX--------------------------
WDir3403501030204040707070000
WSpd11 10 8 9 7 9 10 7 6 5 0 0 0
WGst-- -- -- -- 13 -- -- -- -- -- -- -- --
Raw hourly METARs
KBBD 231755Z AUTO 34011KT 10SM OVC014 21/18 A3002 RMK AO2
KBBD 231855Z AUTO 35010KT 10SM OVC018 22/18 A3001 RMK AO2
KBBD 231955Z AUTO 01008KT 10SM OVC024 23/17 A2999 RMK AO2
KBBD 232055Z AUTO 03009KT 10SM 24/17 A2997 RMK AO2
KBBD 232155Z AUTO 02007G13KT 10SM FEW031 24/17 A2995 RMK AO2
KBBD 232255Z AUTO 04009KT 10SM CLR 25/17 A2995 RMK AO2
KBBD 232355Z AUTO 04010KT 10SM CLR 24/17 A2996 RMK AO2
KBBD 240055Z AUTO 07007KT 10SM CLR 21/17 A2997 RMK AO2
KBBD 240155Z AUTO 07006KT 10SM FEW050 SCT060 19/17 A2999 RMK AO2
KBBD 240255Z AUTO 07005KT 10SM BKN050 18/16 A3000 RMK AO2
KBBD 240355Z AUTO 00000KT 10SM SCT046 18/16 A3001 RMK AO2
KBBD 240455Z AUTO 00000KT 10SM CLR 17/16 A3001 RMK AO2
KBBD 240555Z AUTO 00000KT 10SM CLR 16/15 A3000 RMK AO2



Page loaded:  06:41 UTC  |   11:41 PM Pacific  |   12:41 AM Mountain  |   01:41 AM Central  |   02:41 AM Eastern

 

ADVISORIES

FORECASTS

FORECASTS

OBSERVATIONS

USER TOOLS

ABOUT US